Robins Air Force Base Warner Robins US
ICAO: KWRB
IATA: WRB
Category: Large
Scheduled Services: No

Elevation: 294 ft
TransAlt. 18000 ft.

Airport Communications:
ATLANTA APP/DEP:119.6
ATIS:119.475
ACC COMD POST:31.1
GND:121.85
MAINT CTL CNTR:22.592
AFRC COMD POST:37.217
PMSV METRO:34.985
116 ANG OPS:29.352
PTD:134.1
TWR:133.225

KWRB Zoom In..

If you have problems with the map follow the link
https://www.worldairports.se/pages/airport.php?
ICAO=KWRB

Runways:

(A) RW 15 length 12001 ft width 300 ft
ILS 111.70 / hdg 146

(B) RW 33 length 12001 ft width 300 ft
ILS 110.10 / hdg 326

Location; KWRB
Day. 26 / Time. 22.56 Zulu
* Altimeter: 30.03
* Temperature: 14° c. 57.2°f.
* Wind from: 230° Speed 07 kn.
Dewpoint: 01° c.
Visibility: 10 Statute Miles.
Clouds: Overcast 7500 ft.

KWRB 262256Z 23007KT 10SM OVC075 14/01 A3003 RMK AO2A SLP173 T01360009 $


Wind From 230°
Speed 07 kn.

 
 
jpsmedia worldairports.se 2020   terms of use